STAZIONE METEO DI BARCELLONA P.G. CENTRO
Dati campionati ogni minuto da Consolle Davis Vantage Pro 2
ed inviati alla rete mediante server Anemos WDS5 wview



Barcellona P.G. Centro more information Barcellona P.G. Centro


Golfo di Patti more information Golfo di Patti


avvertimento per Temporali more information blitzortung!


Rain radar  rain snow radar


altri nostri siti meteo:

Rete NOAA MADIS

Italia Meteo Network

Pomeziameteo

Varazze Meteo



Temporali Inizio validità dal: 16-08-2018 09:00 Fino: 18:59 Allerta per: Temporali Livello: Giallo info button
english:
No Special Awareness Required BE AWARE, keep up to date with the latest weather forecast. Expect some minor disruption to outdoor activities

italiano:
Nessun Avviso STARE (RIMANERE) ATTENTI. Tenersi aggiornati con le previsioni del tempo più recenti. Aspettarsi alcuni disagi minori per le attività all'aria aperta. 

Report METAR

   
LICF - Barcellona Pozzo di Gotto
Dati ricevuti: 16-08-2018 22:55
Poche nuvole  
Poche nuvole  
   Vento: W 5.6 km/h
Vento: W 5.6 km/h
Temperatura: 25°C
P.to Rugiada: 22°C
Umidità: 83%
Barometro: 1012 hPa
Nuvole: Poche nuvole
Visibilità: oltre 10 km
dettagli cloud: Poche nuvole 3300 ft
LICF 162055Z 30003KT 9999 FEW033 25/22 Q1012 RMK SCT SCT080 QUK / QUL / VIS MAR 18 KM MON INVIS NC VIS MIN 9999
LICC - Catania
Dati ricevuti: 16-08-2018 22:50
Molto nuvoloso  
Molto nuvoloso  
   Vento: Variabile 3.7 km/h
Vento: Variabile 3.7 km/h
Temperatura: 25°C
P.to Rugiada: 21°C
Umidità: 79%
Barometro: 1013 hPa
Nuvole: Molto nuvoloso
Visibilità: oltre 10 km
dettagli cloud: Parzialmente nuvoloso 3000 ft,
Molto nuvoloso 8000 ft
LICC 162050Z VRB02KT 9999 SCT030 BKN080 25/21 Q1013
LICJ - Palermo
Dati ricevuti: 16-08-2018 22:50
Poche nuvole  
Poche nuvole  
   Vento: NE 11.1 km/h
Vento: NE 11.1 km/h
Temperatura: 26°C
P.to Rugiada: 20°C
Umidità: 70%
Barometro: 1013 hPa
Nuvole: Poche nuvole
Visibilità: oltre 10 km
dettagli cloud: Poche nuvole 3000 ft
LICJ 162050Z 05006KT 9999 FEW030 26/20 Q1013
LICF - Messina
Dati ricevuti: 16-08-2018 22:55
Poche nuvole  
Poche nuvole  
   Vento: W 5.6 km/h
Vento: W 5.6 km/h
Temperatura: 25°C
P.to Rugiada: 22°C
Umidità: 83%
Barometro: 1012 hPa
Nuvole: Poche nuvole
Visibilità: oltre 10 km
dettagli cloud: Poche nuvole 3300 ft
LICF 162055Z 30003KT 9999 FEW033 25/22 Q1012 RMK SCT SCT080 QUK / QUL / VIS MAR 18 KM MON INVIS NC VIS MIN 9999
LICC - Milazzo
Dati ricevuti: 16-08-2018 22:50
Molto nuvoloso  
Molto nuvoloso  
   Vento: Variabile 3.7 km/h
Vento: Variabile 3.7 km/h
Temperatura: 25°C
P.to Rugiada: 21°C
Umidità: 79%
Barometro: 1013 hPa
Nuvole: Molto nuvoloso
Visibilità: oltre 10 km
dettagli cloud: Parzialmente nuvoloso 3000 ft,
Molto nuvoloso 8000 ft
LICC 162050Z VRB02KT 9999 SCT030 BKN080 25/21 Q1013
LICC - Terme Vigliatore
Dati ricevuti: 16-08-2018 22:50
Molto nuvoloso  
Molto nuvoloso  
   Vento: Variabile 3.7 km/h
Vento: Variabile 3.7 km/h
Temperatura: 25°C
P.to Rugiada: 21°C
Umidità: 79%
Barometro: 1013 hPa
Nuvole: Molto nuvoloso
Visibilità: oltre 10 km
dettagli cloud: Parzialmente nuvoloso 3000 ft,
Molto nuvoloso 8000 ft
LICC 162050Z VRB02KT 9999 SCT030 BKN080 25/21 Q1013
LICT - Trapani
Dati ricevuti: 16-08-2018 22:55
Poche nuvole  
Poche nuvole  
   Vento: Nord 3.7 km/h
Vento: Nord 3.7 km/h
Temperatura: 25°C
P.to Rugiada: 21°C
Umidità: 79%
Barometro: 1013 hPa
Nuvole: Poche nuvole
Visibilità: oltre 10 km
dettagli cloud: Poche nuvole 3000 ft
LICT 162055Z 01002KT 9999 FEW030 25/21 Q1013
  

Script sviluppato da  Saratoga-weather.org Adattato per il modello da  Weerstation Leuven

Potete trovare le nostre info meteo anche a:

European Weather Network

Weather Underground

AWEKAS

Citizen Weather Observer Program (CWOP)

HAMweather, WeatherForYou, PWS Weather

Strumentazione usata:

Stazione meteo
Davis VP2

Programma gestore dati meteo
WVIEW

Server per i dati meteo
WDS5 Ecoblack

Davis VP2

WVIEW

WDS5 Ecoblack